Time;durP1;ratioP1;P1;durP2;ratioP2;P2;SDS_P1;SDS_P2;PMS_P1;PMS_P2;Temp;Humidity;BMP_temperature;BMP_pressure;BME280_temperature;BME280_humidity;BME280_pressure;Samples;Min_cycle;Max_cycle;Signal;HPM_P1;HPM_P2
2023/06/20 00:01:00;;;;;;;15.37;6.30;;;20.40;70.50;;;;;;5982166;24;20458;-65
2023/06/20 00:03:27;;;;;;;12.20;6.47;;;20.40;71.40;;;;;;5981896;24;20468;-65
2023/06/20 00:05:54;;;;;;;11.73;6.87;;;20.30;73.00;;;;;;5982253;24;20454;-65
2023/06/20 00:08:21;;;;;;;10.87;6.00;;;20.40;71.00;;;;;;5982214;24;20451;-65
2023/06/20 00:10:49;;;;;;;11.83;6.90;;;20.30;73.10;;;;;;5982407;24;20441;-65
2023/06/20 00:13:17;;;;;;;13.77;7.23;;;20.30;77.60;;;;;;5981715;24;20443;-65
2023/06/20 00:15:44;;;;;;;12.53;6.50;;;20.40;76.00;;;;;;5982281;24;20420;-65
2023/06/20 00:18:11;;;;;;;13.17;6.77;;;20.30;75.20;;;;;;5982057;24;20419;-65
2023/06/20 00:20:38;;;;;;;10.30;6.60;;;20.40;75.30;;;;;;5981902;24;20730;-65
2023/06/20 00:23:06;;;;;;;12.67;5.70;;;20.40;74.60;;;;;;5982304;24;20422;-65
2023/06/20 00:25:33;;;;;;;11.13;4.83;;;20.40;73.20;;;;;;5982638;24;20419;-65
2023/06/20 00:28:02;;;;;;;9.30;5.30;;;20.30;73.10;;;;;;5983819;24;20503;-65
2023/06/20 00:30:29;;;;;;;9.70;6.07;;;20.40;74.50;;;;;;5984093;24;20435;-65
2023/06/20 00:32:58;;;;;;;10.20;6.33;;;20.40;76.70;;;;;;5983764;24;20522;-65
2023/06/20 00:35:25;;;;;;;11.43;6.30;;;20.40;78.50;;;;;;5983525;24;20419;-65
2023/06/20 00:37:52;;;;;;;10.70;6.67;;;20.30;79.30;;;;;;5984157;24;20423;-65
2023/06/20 00:40:19;;;;;;;11.10;6.73;;;20.30;78.40;;;;;;5983968;24;20837;-65
2023/06/20 00:42:47;;;;;;;10.10;6.20;;;20.30;78.40;;;;;;5983639;24;20451;-65
2023/06/20 00:48:10;;;;;;;10.50;5.83;;;20.30;78.40;;;;;;5151211;27;20856;-63
2023/06/20 00:50:37;;;;;;;11.37;6.60;;;20.40;72.90;;;;;;5151281;27;20449;-63
2023/06/20 00:53:05;;;;;;;10.73;6.73;;;20.40;70.50;;;;;;5151074;27;20439;-63
2023/06/20 00:55:34;;;;;;;12.77;7.50;;;20.40;72.50;;;;;;5150679;27;20530;-63
2023/06/20 00:58:02;;;;;;;11.47;7.13;;;20.30;78.50;;;;;;5151099;27;20443;-63
2023/06/20 01:00:32;;;;;;;11.60;7.53;;;20.30;81.80;;;;;;5151214;27;20526;-63
2023/06/20 01:03:02;;;;;;;11.57;7.63;;;20.20;86.30;;;;;;5150940;27;20521;-63
2023/06/20 01:05:31;;;;;;;11.70;7.30;;;20.20;89.60;;;;;;5150710;27;20454;-63
2023/06/20 01:08:14;;;;;;;11.67;7.47;;;20.10;90.40;;;;;;5150767;27;20514;-63
2023/06/20 01:10:53;;;;;;;12.37;7.37;;;20.00;93.00;;;;;;5151317;27;20611;-63
2023/06/20 01:13:25;;;;;;;10.90;7.47;;;19.90;95.10;;;;;;5150350;27;20455;-63
2023/06/20 01:16:00;;;;;;;13.83;7.80;;;19.80;98.40;;;;;;5150939;27;20451;-63
2023/06/20 01:18:43;;;;;;;11.43;7.63;;;19.70;98.00;;;;;;5150473;27;21223;-63
2023/06/20 01:21:17;;;;;;;12.47;7.17;;;19.70;97.60;;;;;;5150965;27;20463;-63
2023/06/20 01:23:55;;;;;;;13.10;8.27;;;19.70;95.00;;;;;;5150335;27;20852;-63
2023/06/20 01:26:29;;;;;;;9.80;6.63;;;19.80;95.00;;;;;;5150588;27;20557;-63
2023/06/20 01:29:01;;;;;;;16.70;9.43;;;19.90;93.30;;;;;;5150320;27;20869;-63
2023/06/20 01:31:33;;;;;;;13.70;7.10;;;19.90;91.60;;;;;;5150751;27;20465;-63
2023/06/20 01:34:07;;;;;;;15.20;8.63;;;19.90;90.60;;;;;;5150086;27;20571;-63
2023/06/20 01:36:38;;;;;;;14.33;8.47;;;19.90;94.20;;;;;;5149228;27;20453;-63
2023/06/20 01:39:11;;;;;;;16.17;7.67;;;20.00;95.10;;;;;;5150612;27;20458;-63
2023/06/20 01:41:42;;;;;;;15.33;7.27;;;19.90;95.10;;;;;;5150582;27;20881;-63
2023/06/20 01:44:12;;;;;;;14.43;7.17;;;19.90;93.10;;;;;;5149862;27;20539;-63
2023/06/20 01:46:39;;;;;;;14.17;8.63;;;20.00;91.30;;;;;;5150301;27;20475;-63
2023/06/20 01:49:08;;;;;;;14.53;7.57;;;19.90;92.00;;;;;;5150003;27;20447;-63
2023/06/20 01:51:35;;;;;;;18.03;7.73;;;19.90;92.80;;;;;;5150025;27;20542;-63
2023/06/20 01:54:04;;;;;;;13.40;8.30;;;19.90;90.90;;;;;;5149505;27;20557;-63
2023/06/20 01:56:33;;;;;;;12.80;7.50;;;20.00;87.70;;;;;;5149908;27;20454;-63
2023/06/20 01:59:03;;;;;;;13.27;8.30;;;20.10;86.20;;;;;;5139029;27;20454;-62
2023/06/20 02:01:31;;;;;;;25.73;7.07;;;20.10;86.20;;;;;;5136146;27;20447;-62
2023/06/20 02:04:00;;;;;;;17.00;6.37;;;20.20;86.30;;;;;;5135362;27;20456;-63
2023/06/20 02:06:28;;;;;;;15.90;6.87;;;20.20;82.30;;;;;;5135819;27;21056;-63
2023/06/20 02:08:56;;;;;;;12.97;6.50;;;20.30;82.90;;;;;;5136005;27;20444;-63
2023/06/20 02:11:23;;;;;;;12.70;7.50;;;20.20;86.30;;;;;;5136237;27;20448;-63
2023/06/20 02:13:53;;;;;;;19.27;8.43;;;20.10;90.00;;;;;;5135391;27;20520;-63
2023/06/20 02:16:22;;;;;;;14.67;8.40;;;19.90;95.10;;;;;;5135831;27;20448;-62
2023/06/20 02:18:49;;;;;;;15.13;9.17;;;19.70;97.20;;;;;;5135425;27;20448;-62
2023/06/20 02:21:26;;;;;;;13.40;7.90;;;19.60;99.10;;;;;;5135963;27;20886;-62
2023/06/20 02:23:54;;;;;;;11.43;9.33;;;19.50;99.10;;;;;;5135415;27;20452;-62
2023/06/20 02:26:26;;;;;;;18.30;10.83;;;19.50;99.90;;;;;;5135681;27;20825;-62
2023/06/20 02:28:58;;;;;;;16.43;13.67;;;19.40;99.90;;;;;;5135355;27;20454;-62
2023/06/20 02:31:29;;;;;;;35.63;33.40;;;19.40;99.90;;;;;;5135406;27;20452;-62
2023/06/20 02:33:59;;;;;;;41.37;38.97;;;19.40;99.90;;;;;;5135269;27;20459;-62
2023/06/20 02:36:29;;;;;;;44.13;41.53;;;19.40;99.90;;;;;;5135743;27;20455;-62
2023/06/20 02:38:57;;;;;;;247.40;238.90;;;19.40;99.90;;;;;;5135126;27;20483;-62
2023/06/20 02:41:25;;;;;;;412.17;397.07;;;19.30;99.90;;;;;;5135294;27;20543;-62
2023/06/20 02:43:53;;;;;;;508.73;488.30;;;19.20;99.90;;;;;;5134712;27;20531;-62
2023/06/20 02:46:28;;;;;;;463.37;445.97;;;19.20;99.90;;;;;;5134958;27;20491;-62
2023/06/20 02:49:15;;;;;;;413.10;398.60;;;19.20;99.90;;;;;;5135211;27;20450;-62
2023/06/20 02:51:51;;;;;;;468.47;451.07;;;19.30;99.90;;;;;;5135249;27;20513;-62
2023/06/20 02:54:25;;;;;;;538.57;517.10;;;19.30;99.90;;;;;;5134420;27;20462;-62
2023/06/20 02:56:56;;;;;;;620.93;595.13;;;19.20;99.90;;;;;;5135082;27;20451;-62
2023/06/20 02:59:27;;;;;;;693.80;662.83;;;19.20;99.90;;;;;;5134867;27;20444;-62
2023/06/20 03:01:58;;;;;;;711.60;678.20;;;19.20;99.90;;;;;;5135032;27;20621;-62
2023/06/20 03:04:28;;;;;;;735.70;699.07;;;19.20;99.90;;;;;;5134346;27;20447;-62
2023/06/20 03:06:58;;;;;;;733.67;697.70;;;19.10;99.90;;;;;;5134614;27;20479;-62
2023/06/20 03:09:26;;;;;;;745.43;708.63;;;19.10;99.90;;;;;;5133788;27;20452;-62
2023/06/20 03:11:53;;;;;;;740.40;702.93;;;19.10;99.90;;;;;;5134624;27;20452;-62
2023/06/20 03:14:20;;;;;;;761.33;723.00;;;19.10;99.90;;;;;;5134174;27;20501;-62
2023/06/20 03:16:49;;;;;;;792.03;748.93;;;19.10;99.90;;;;;;5134657;27;20444;-61
2023/06/20 03:19:16;;;;;;;829.47;782.20;;;19.10;99.90;;;;;;5134248;27;20487;-61
2023/06/20 03:21:42;;;;;;;838.30;788.77;;;19.00;99.90;;;;;;5134479;27;20448;-61
2023/06/20 03:24:09;;;;;;;857.00;805.83;;;19.00;99.90;;;;;;5134404;27;20875;-61
2023/06/20 03:26:37;;;;;;;856.23;803.10;;;19.00;99.90;;;;;;5134227;27;20539;-60
2023/06/20 03:29:04;;;;;;;868.77;814.87;;;19.00;99.90;;;;;;5133901;27;20509;-61
2023/06/20 03:31:31;;;;;;;883.80;827.07;;;19.00;99.90;;;;;;5134316;27;20448;-61
2023/06/20 03:33:59;;;;;;;887.00;827.93;;;19.00;99.90;;;;;;5133598;27;20458;-60
2023/06/20 03:36:26;;;;;;;887.67;826.03;;;19.00;99.90;;;;;;5134207;27;20534;-60
2023/06/20 03:38:53;;;;;;;882.73;821.63;;;18.90;99.90;;;;;;5134088;27;20452;-60
2023/06/20 03:41:20;;;;;;;877.07;813.33;;;18.90;99.90;;;;;;5134270;27;20535;-60
2023/06/20 03:43:47;;;;;;;867.30;802.90;;;18.90;99.90;;;;;;5133549;27;20535;-60
2023/06/20 03:46:14;;;;;;;871.10;805.60;;;18.90;99.90;;;;;;5133937;27;20542;-60
2023/06/20 03:48:40;;;;;;;863.43;797.10;;;18.80;99.90;;;;;;5133739;27;20472;-60
2023/06/20 03:51:09;;;;;;;877.30;811.57;;;18.80;99.90;;;;;;5133974;27;20543;-60
2023/06/20 03:53:36;;;;;;;867.40;799.80;;;18.80;99.90;;;;;;5133471;27;20458;-60
2023/06/20 03:56:03;;;;;;;871.17;805.83;;;18.80;99.90;;;;;;5133926;27;20455;-60
2023/06/20 03:58:30;;;;;;;871.20;804.50;;;18.80;99.90;;;;;;5133659;27;20451;-61
2023/06/20 04:00:57;;;;;;;870.23;805.00;;;18.80;99.90;;;;;;5133628;27;20531;-60
2023/06/20 04:03:24;;;;;;;883.83;817.50;;;18.80;99.90;;;;;;5133233;27;20454;-61
2023/06/20 04:05:51;;;;;;;871.30;807.17;;;18.90;99.90;;;;;;5133904;27;20531;-61
2023/06/20 04:08:19;;;;;;;869.03;805.40;;;18.90;99.90;;;;;;5133404;27;20476;-61
2023/06/20 04:10:46;;;;;;;875.27;810.90;;;19.00;99.90;;;;;;5133717;27;20531;-61
2023/06/20 04:13:13;;;;;;;875.73;810.43;;;19.00;99.90;;;;;;5133859;27;20535;-61
2023/06/20 04:15:40;;;;;;;866.23;801.33;;;19.00;99.90;;;;;;5133410;27;20440;-61
2023/06/20 04:18:07;;;;;;;875.17;809.07;;;19.00;99.90;;;;;;5133356;27;20864;-61
2023/06/20 04:20:34;;;;;;;873.50;806.40;;;19.00;99.90;;;;;;5133309;27;20564;-61
2023/06/20 04:23:01;;;;;;;886.13;819.27;;;19.10;99.90;;;;;;5133510;27;20536;-61
2023/06/20 04:25:29;;;;;;;875.57;810.80;;;19.10;99.90;;;;;;5133054;27;20877;-61
2023/06/20 04:27:57;;;;;;;874.53;808.87;;;19.10;99.90;;;;;;5133199;27;20500;-61
2023/06/20 04:30:24;;;;;;;879.27;812.87;;;19.10;99.90;;;;;;5133427;27;20862;-61
2023/06/20 04:32:53;;;;;;;884.50;817.17;;;19.10;99.90;;;;;;5133492;27;20452;-61
2023/06/20 04:35:20;;;;;;;880.53;813.50;;;19.10;99.90;;;;;;5132913;27;20547;-61
2023/06/20 04:37:48;;;;;;;875.73;809.63;;;19.10;99.90;;;;;;5133313;27;20467;-61
2023/06/20 04:40:15;;;;;;;881.13;814.57;;;19.20;99.90;;;;;;5133001;27;20456;-61
2023/06/20 04:42:45;;;;;;;875.57;810.37;;;19.30;99.90;;;;;;5133026;27;20455;-61
2023/06/20 04:45:12;;;;;;;865.93;802.57;;;19.30;99.90;;;;;;5132688;28;20454;-61
2023/06/20 04:47:41;;;;;;;882.67;815.67;;;19.40;99.90;;;;;;5133010;28;20990;-61
2023/06/20 04:50:09;;;;;;;883.97;815.20;;;19.50;99.90;;;;;;5133053;28;20504;-61
2023/06/20 04:52:36;;;;;;;883.33;814.90;;;19.60;99.90;;;;;;5133219;28;20864;-61
2023/06/20 04:55:03;;;;;;;893.33;824.77;;;19.60;99.90;;;;;;5132478;28;21005;-61
2023/06/20 04:57:30;;;;;;;882.93;815.90;;;19.70;99.90;;;;;;5133106;27;20535;-61
2023/06/20 04:59:59;;;;;;;877.33;810.40;;;19.70;99.90;;;;;;5132987;28;20451;-62
2023/06/20 05:02:27;;;;;;;865.43;799.87;;;19.80;99.90;;;;;;5132787;27;20452;-62
2023/06/20 05:04:54;;;;;;;865.20;801.50;;;19.90;99.90;;;;;;5132546;28;20452;-62
2023/06/20 05:07:22;;;;;;;865.67;802.67;;;19.90;99.90;;;;;;5133047;27;20640;-62
2023/06/20 05:09:49;;;;;;;870.03;807.07;;;20.00;99.90;;;;;;5132696;27;20821;-62
2023/06/20 05:12:16;;;;;;;875.77;815.60;;;20.10;99.90;;;;;;5133080;28;20452;-62
2023/06/20 05:14:43;;;;;;;869.50;813.50;;;20.10;99.90;;;;;;5132614;27;20538;-62
2023/06/20 05:17:11;;;;;;;858.97;802.90;;;20.10;99.90;;;;;;5133111;27;20448;-62
2023/06/20 05:19:38;;;;;;;860.80;806.23;;;20.20;99.90;;;;;;5132681;28;20451;-62
2023/06/20 05:22:05;;;;;;;866.93;814.07;;;20.30;99.90;;;;;;5132682;28;20543;-62
2023/06/20 05:24:32;;;;;;;854.83;804.10;;;20.30;99.90;;;;;;5132527;27;20459;-62
2023/06/20 05:26:59;;;;;;;832.37;785.73;;;20.50;99.90;;;;;;5132983;27;20531;-62
2023/06/20 05:29:26;;;;;;;820.10;775.13;;;20.60;99.90;;;;;;5132545;27;20551;-62
2023/06/20 05:31:53;;;;;;;810.40;766.97;;;20.60;99.90;;;;;;5132859;27;20813;-62
2023/06/20 05:34:22;;;;;;;784.30;744.40;;;20.70;99.90;;;;;;5134967;27;20999;-62
2023/06/20 05:36:48;;;;;;;811.33;767.57;;;20.70;99.90;;;;;;5136488;27;20455;-62
2023/06/20 05:39:15;;;;;;;806.17;764.87;;;20.80;99.90;;;;;;5136594;27;20877;-62
2023/06/20 05:41:43;;;;;;;783.60;745.40;;;20.80;99.90;;;;;;5136702;27;20538;-62
2023/06/20 05:44:09;;;;;;;711.77;681.47;;;20.80;99.90;;;;;;5136167;27;20447;-62
2023/06/20 05:46:36;;;;;;;607.40;583.90;;;20.90;99.90;;;;;;5136368;27;20456;-62
2023/06/20 05:49:03;;;;;;;650.13;624.13;;;20.80;99.90;;;;;;5135887;27;20475;-62
2023/06/20 05:51:32;;;;;;;511.83;493.47;;;21.00;99.90;;;;;;5136225;27;20562;-62
2023/06/20 05:53:59;;;;;;;525.60;506.30;;;21.10;99.90;;;;;;5135459;27;20453;-62
2023/06/20 05:56:26;;;;;;;181.33;175.13;;;21.60;99.90;;;;;;5135930;27;20814;-62
2023/06/20 05:58:53;;;;;;;33.10;31.03;;;22.10;99.90;;;;;;5135471;27;20474;-61
2023/06/20 06:01:20;;;;;;;11.57;10.43;;;22.50;99.90;;;;;;5134548;27;20423;-61
2023/06/20 06:03:48;;;;;;;8.70;6.63;;;22.90;99.90;;;;;;5135465;27;20473;-61
2023/06/20 06:06:15;;;;;;;8.07;6.50;;;23.30;99.90;;;;;;5136003;27;20444;-61
2023/06/20 06:08:43;;;;;;;11.53;5.67;;;23.50;99.90;;;;;;5135664;27;20475;-61
2023/06/20 06:11:11;;;;;;;10.97;5.67;;;23.70;99.90;;;;;;5135881;27;20491;-61
2023/06/20 06:13:39;;;;;;;9.37;5.50;;;23.80;99.90;;;;;;5135328;27;20456;-61
2023/06/20 06:16:06;;;;;;;9.77;5.93;;;24.00;99.90;;;;;;5135835;27;20861;-61
2023/06/20 06:18:33;;;;;;;10.20;5.80;;;24.30;99.90;;;;;;5135422;27;20544;-61
2023/06/20 06:21:00;;;;;;;8.73;5.50;;;24.60;99.90;;;;;;5135936;27;20454;-61
2023/06/20 06:23:28;;;;;;;10.67;6.00;;;24.90;99.90;;;;;;5135402;27;20788;-61
2023/06/20 06:25:56;;;;;;;8.53;5.57;;;24.80;99.90;;;;;;5135600;27;20534;-61
2023/06/20 06:28:24;;;;;;;8.83;5.60;;;24.50;99.90;;;;;;5135442;27;20904;-62
2023/06/20 06:30:51;;;;;;;8.83;5.63;;;24.30;99.90;;;;;;5135330;27;20497;-61
2023/06/20 06:33:19;;;;;;;8.73;5.63;;;24.60;99.90;;;;;;5135324;27;20812;-61
2023/06/20 06:35:47;;;;;;;10.80;7.30;;;24.90;99.90;;;;;;5135673;27;20812;-61
2023/06/20 06:38:14;;;;;;;12.53;6.87;;;25.00;98.90;;;;;;5135185;27;20445;-62
2023/06/20 06:40:45;;;;;;;9.97;6.60;;;25.30;98.30;;;;;;5134480;27;20543;-62
2023/06/20 06:43:13;;;;;;;9.67;6.70;;;25.80;97.40;;;;;;5113399;27;20468;-62
2023/06/20 06:45:40;;;;;;;12.80;7.07;;;25.90;96.60;;;;;;5113148;28;20461;-62
2023/06/20 06:48:07;;;;;;;12.40;7.80;;;26.20;93.50;;;;;;5114341;28;20473;-62
2023/06/20 06:50:34;;;;;;;11.17;7.07;;;26.40;92.00;;;;;;5114592;28;20449;-62
2023/06/20 06:53:01;;;;;;;9.73;6.90;;;26.70;90.80;;;;;;5113516;28;20535;-62
2023/06/20 06:55:28;;;;;;;15.60;9.00;;;26.70;90.20;;;;;;5114013;28;20536;-64
2023/06/20 06:57:55;;;;;;;12.07;9.00;;;26.80;85.50;;;;;;5114425;28;20511;-64
2023/06/20 07:00:24;;;;;;;13.23;8.60;;;26.70;83.90;;;;;;5114031;28;20459;-64
2023/06/20 07:02:50;;;;;;;11.57;8.00;;;26.90;84.10;;;;;;5114480;28;20455;-64
2023/06/20 07:05:17;;;;;;;9.97;6.80;;;27.30;81.00;;;;;;5130471;27;20549;-63
2023/06/20 07:07:44;;;;;;;13.00;6.80;;;27.30;81.60;;;;;;5133918;27;20881;-63
2023/06/20 07:10:11;;;;;;;10.23;7.53;;;27.30;76.30;;;;;;5133549;27;20459;-63
2023/06/20 07:12:39;;;;;;;11.93;6.40;;;27.30;75.20;;;;;;5133325;27;20455;-63
2023/06/20 07:15:07;;;;;;;10.17;6.80;;;27.40;76.30;;;;;;5133326;27;20518;-63
2023/06/20 07:17:36;;;;;;;11.63;7.40;;;27.20;77.00;;;;;;5134075;27;20455;-63
2023/06/20 07:20:06;;;;;;;11.10;7.77;;;27.40;76.30;;;;;;5133163;27;20440;-63
2023/06/20 07:22:34;;;;;;;10.50;7.30;;;27.60;73.60;;;;;;5133762;27;20448;-63
2023/06/20 07:25:01;;;;;;;11.37;7.60;;;27.70;75.40;;;;;;5132842;27;20449;-63
2023/06/20 07:27:28;;;;;;;11.83;8.17;;;27.70;71.60;;;;;;5133564;27;20430;-63
2023/06/20 07:29:55;;;;;;;10.83;8.00;;;27.80;69.40;;;;;;5133364;27;20881;-63
2023/06/20 07:32:22;;;;;;;14.27;8.27;;;27.80;69.80;;;;;;5133349;27;20546;-63
2023/06/20 07:34:51;;;;;;;11.37;7.10;;;27.70;68.30;;;;;;5133042;27;20789;-63
2023/06/20 07:37:17;;;;;;;10.23;6.53;;;27.70;66.90;;;;;;5130562;27;20508;-63
2023/06/20 07:39:46;;;;;;;9.13;6.10;;;27.80;63.40;;;;;;5132656;27;20425;-63
2023/06/20 07:42:14;;;;;;;9.17;5.80;;;27.70;62.00;;;;;;5133366;27;20462;-63
2023/06/20 07:44:40;;;;;;;11.10;5.40;;;27.90;62.80;;;;;;5131798;27;20450;-63
2023/06/20 07:47:07;;;;;;;8.23;5.97;;;28.10;61.20;;;;;;5133900;27;20461;-64
2023/06/20 07:49:34;;;;;;;12.23;6.27;;;28.50;59.10;;;;;;5133527;27;20487;-63
2023/06/20 07:52:03;;;;;;;9.90;5.30;;;28.60;54.40;;;;;;5134046;27;20448;-63
2023/06/20 07:54:29;;;;;;;10.53;6.37;;;28.60;55.00;;;;;;5133341;27;20898;-62
2023/06/20 07:56:56;;;;;;;9.10;5.90;;;28.50;51.50;;;;;;5133229;27;20455;-62
2023/06/20 07:59:23;;;;;;;7.73;5.90;;;28.70;54.30;;;;;;5133592;27;20454;-63
2023/06/20 08:01:50;;;;;;;10.33;6.13;;;28.90;53.20;;;;;;5133624;27;20452;-64
2023/06/20 08:04:17;;;;;;;10.70;5.80;;;29.10;51.90;;;;;;5133359;27;20444;-64
2023/06/20 08:06:44;;;;;;;8.50;5.57;;;29.30;47.70;;;;;;5133863;27;20452;-63
2023/06/20 08:09:12;;;;;;;7.97;5.53;;;29.50;45.20;;;;;;5133450;27;20472;-63
2023/06/20 08:11:39;;;;;;;11.60;6.03;;;29.50;43.10;;;;;;5133619;27;20508;-64
2023/06/20 08:14:05;;;;;;;10.33;6.93;;;29.40;43.90;;;;;;5133331;27;20554;-63
2023/06/20 08:16:32;;;;;;;8.20;5.80;;;29.50;43.10;;;;;;5133101;27;20436;-64
2023/06/20 08:18:59;;;;;;;7.80;5.63;;;29.60;43.30;;;;;;5134683;27;20190;-63
2023/06/20 08:21:26;;;;;;;7.73;5.00;;;29.80;37.80;;;;;;5135000;27;20474;-63
2023/06/20 08:23:53;;;;;;;7.20;4.87;;;29.80;40.00;;;;;;5134969;27;20459;-63
2023/06/20 08:26:21;;;;;;;9.30;5.20;;;29.90;36.80;;;;;;5134470;27;20447;-66
2023/06/20 08:28:48;;;;;;;8.90;5.60;;;30.00;34.20;;;;;;5133921;27;20458;-66
2023/06/20 08:31:15;;;;;;;9.80;4.77;;;29.80;33.10;;;;;;5133487;27;20434;-67
2023/06/20 08:33:42;;;;;;;13.87;5.60;;;29.70;34.00;;;;;;5133220;27;20452;-68
2023/06/20 08:36:10;;;;;;;7.60;5.10;;;29.80;34.10;;;;;;5133934;27;20427;-67
2023/06/20 08:38:38;;;;;;;8.97;5.83;;;30.20;36.20;;;;;;5133215;27;20448;-67
2023/06/20 08:41:08;;;;;;;8.47;5.70;;;30.50;34.50;;;;;;5133156;27;20456;-66
2023/06/20 08:43:36;;;;;;;6.93;4.50;;;30.80;31.70;;;;;;5132740;27;20775;-66
2023/06/20 08:46:03;;;;;;;9.57;5.43;;;31.00;33.40;;;;;;5133276;28;20470;-66
2023/06/20 08:48:30;;;;;;;6.97;4.87;;;31.30;26.80;;;;;;5133257;28;20438;-66
2023/06/20 08:50:58;;;;;;;8.80;5.70;;;31.50;28.40;;;;;;5133307;27;20452;-67
2023/06/20 08:53:27;;;;;;;12.10;6.70;;;31.80;27.00;;;;;;5132696;27;20484;-62
2023/06/20 08:55:54;;;;;;;10.93;6.30;;;31.60;23.20;;;;;;5133872;27;21004;-63
2023/06/20 08:58:21;;;;;;;8.33;5.30;;;31.40;24.80;;;;;;5133464;28;20423;-62
2023/06/20 09:00:50;;;;;;;9.27;5.23;;;31.20;25.30;;;;;;5133671;27;20447;-62
2023/06/20 09:03:17;;;;;;;7.30;3.80;;;31.40;23.40;;;;;;5133181;27;20613;-62
2023/06/20 09:05:45;;;;;;;6.87;4.70;;;30.60;23.90;;;;;;5133096;28;20451;-62
2023/06/20 09:08:14;;;;;;;7.57;4.90;;;30.40;24.40;;;;;;5134082;27;20431;-62
2023/06/20 09:10:41;;;;;;;7.60;4.77;;;30.60;25.70;;;;;;5137373;27;20476;-62
2023/06/20 09:13:09;;;;;;;10.10;4.33;;;30.80;25.50;;;;;;5137204;27;20888;-62
2023/06/20 09:15:37;;;;;;;8.33;4.23;;;31.00;22.90;;;;;;5136698;27;20837;-62
2023/06/20 09:18:07;;;;;;;7.10;4.50;;;31.60;20.70;;;;;;5137023;27;20452;-62
2023/06/20 09:20:34;;;;;;;6.43;3.80;;;31.80;19.50;;;;;;5136876;27;20452;-62
2023/06/20 09:23:01;;;;;;;7.63;4.70;;;32.40;18.10;;;;;;5136877;27;20943;-62
2023/06/20 09:25:29;;;;;;;8.37;5.70;;;32.10;16.90;;;;;;5136553;27;20455;-62
2023/06/20 09:27:57;;;;;;;9.20;5.40;;;32.30;17.50;;;;;;5136856;27;20455;-62
2023/06/20 09:30:28;;;;;;;7.30;4.60;;;32.20;19.70;;;;;;5136565;27;20483;-62
2023/06/20 09:32:55;;;;;;;8.70;4.70;;;32.00;17.60;;;;;;5136593;27;20455;-62
2023/06/20 09:35:24;;;;;;;7.93;4.83;;;32.20;16.80;;;;;;5136146;27;20456;-62
2023/06/20 09:37:53;;;;;;;7.93;4.73;;;31.90;16.10;;;;;;5136846;27;20452;-62
2023/06/20 09:40:21;;;;;;;6.63;3.93;;;32.10;15.90;;;;;;5136436;27;20426;-62
2023/06/20 09:42:48;;;;;;;6.60;3.90;;;32.00;17.50;;;;;;5136570;27;20962;-62
2023/06/20 09:45:17;;;;;;;7.37;4.03;;;32.20;13.80;;;;;;5136066;27;20429;-62
2023/06/20 09:47:45;;;;;;;7.07;4.67;;;32.10;12.20;;;;;;5136410;27;20444;-62
2023/06/20 09:50:16;;;;;;;6.97;4.50;;;32.30;12.60;;;;;;5136363;27;20450;-62
2023/06/20 09:52:46;;;;;;;8.63;4.70;;;32.30;14.10;;;;;;5136525;27;20444;-62
2023/06/20 09:55:15;;;;;;;7.47;4.60;;;32.50;12.20;;;;;;5135957;27;20542;-62
2023/06/20 09:57:43;;;;;;;7.50;4.77;;;32.40;12.20;;;;;;5136289;27;20810;-62
2023/06/20 10:00:14;;;;;;;10.83;4.83;;;32.90;11.30;;;;;;5136432;27;20422;-62
2023/06/20 10:02:45;;;;;;;8.70;4.70;;;33.00;10.20;;;;;;5136487;27;20452;-62
2023/06/20 10:05:14;;;;;;;8.80;5.37;;;33.10;8.90;;;;;;5136012;27;20436;-62
2023/06/20 10:07:42;;;;;;;8.80;5.80;;;33.20;9.30;;;;;;5136198;27;20426;-62
2023/06/20 10:10:11;;;;;;;13.40;5.50;;;33.30;9.00;;;;;;5135929;27;20560;-62
2023/06/20 10:12:39;;;;;;;8.80;4.83;;;33.80;7.70;;;;;;5135892;27;20463;-62
2023/06/20 10:15:08;;;;;;;8.90;4.50;;;34.40;5.40;;;;;;5135330;27;20935;-62
2023/06/20 10:17:39;;;;;;;8.13;4.27;;;34.60;3.40;;;;;;5136069;27;20451;-62
2023/06/20 10:20:08;;;;;;;8.30;5.37;;;34.20;2.00;;;;;;5135213;27;20430;-62
2023/06/20 10:22:36;;;;;;;7.40;4.20;;;33.40;1.00;;;;;;5136453;27;20427;-62
2023/06/20 10:25:14;;;;;;;6.73;4.40;;;33.90;2.90;;;;;;5135138;27;20422;-62
2023/06/20 10:27:42;;;;;;;7.05;4.30;;;33.40;1.00;;;;;;5135469;27;20453;-64
2023/06/20 10:30:11;;;;;;;6.53;4.20;;;33.90;2.10;;;;;;5136847;27;20222;-64
2023/06/20 10:32:58;;;;;;;7.33;4.17;;;34.40;1.80;;;;;;5136865;27;20451;-64
2023/06/20 10:35:28;;;;;;;7.57;3.97;;;34.30;1.00;;;;;;5136575;27;20421;-64
2023/06/20 10:38:08;;;;;;;8.23;4.77;;;34.60;1.00;;;;;;5135227;27;20461;-64
2023/06/20 10:40:37;;;;;;;6.20;3.97;;;34.40;1.00;;;;;;5135026;27;20428;-64
2023/06/20 10:43:08;;;;;;;7.90;4.03;;;34.50;1.00;;;;;;5134515;27;20432;-64
2023/06/20 10:45:35;;;;;;;7.33;4.70;;;35.00;1.00;;;;;;5134333;27;20448;-64
2023/06/20 10:48:03;;;;;;;6.47;4.30;;;34.80;1.00;;;;;;5134189;27;20933;-64
2023/06/20 10:50:30;;;;;;;8.10;4.70;;;35.70;1.00;;;;;;5135123;27;20467;-65
2023/06/20 10:53:01;;;;;;;8.17;4.17;;;35.90;1.00;;;;;;5135756;27;20447;-66
2023/06/20 10:55:29;;;;;;;6.80;4.13;;;35.60;1.00;;;;;;5135218;27;20452;-63
2023/06/20 10:57:57;;;;;;;8.10;4.30;;;36.20;1.00;;;;;;5135527;27;20444;-63
2023/06/20 11:00:25;;;;;;;7.13;4.10;;;36.50;1.00;;;;;;5134760;27;20475;-64
2023/06/20 11:02:53;;;;;;;7.87;4.80;;;36.60;1.00;;;;;;5135228;27;20881;-62
2023/06/20 11:05:26;;;;;;;7.77;4.20;;;36.80;1.00;;;;;;5134871;27;20921;-63
2023/06/20 11:07:58;;;;;;;8.07;4.03;;;36.90;1.00;;;;;;5135515;27;20444;-62
2023/06/20 11:10:28;;;;;;;6.33;3.97;;;37.40;1.00;;;;;;5135324;27;20892;-62
2023/06/20 11:12:57;;;;;;;6.57;4.10;;;38.10;1.00;;;;;;5135313;27;20495;-63
2023/06/20 11:15:26;;;;;;;5.87;3.57;;;38.60;1.00;;;;;;5135204;27;20427;-61
2023/06/20 11:17:53;;;;;;;6.93;3.57;;;38.40;1.00;;;;;;5135355;27;20483;-62
2023/06/20 11:20:22;;;;;;;6.30;4.23;;;37.90;1.00;;;;;;5134932;27;20448;-61
2023/06/20 11:22:50;;;;;;;6.90;4.20;;;37.30;1.00;;;;;;5134910;27;20418;-61
2023/06/20 11:25:25;;;;;;;9.23;3.50;;;37.70;1.00;;;;;;5134515;27;20935;-61
2023/06/20 11:27:52;;;;;;;7.87;4.20;;;37.50;1.00;;;;;;5135157;27;20426;-61
2023/06/20 11:30:27;;;;;;;6.20;4.20;;;38.00;1.00;;;;;;5134281;27;20457;-62
2023/06/20 11:33:05;;;;;;;6.60;3.80;;;37.70;1.00;;;;;;5134994;27;20458;-62
2023/06/20 11:35:49;;;;;;;8.27;4.70;;;38.40;1.00;;;;;;5134489;27;20538;-61
2023/06/20 11:38:21;;;;;;;6.13;3.87;;;38.60;1.00;;;;;;5134977;27;20422;-62
2023/06/20 11:40:59;;;;;;;7.10;3.80;;;38.10;1.00;;;;;;5134881;27;20967;-61
2023/06/20 11:43:27;;;;;;;7.33;4.20;;;38.10;1.00;;;;;;5134298;27;20466;-62
2023/06/20 11:46:00;;;;;;;7.17;4.50;;;39.10;1.00;;;;;;5134635;27;20452;-62
2023/06/20 11:48:28;;;;;;;9.37;4.70;;;39.10;1.00;;;;;;5134342;27;20909;-62
2023/06/20 11:50:57;;;;;;;6.70;3.80;;;39.10;1.00;;;;;;5134315;27;20472;-62
2023/06/20 11:53:28;;;;;;;6.10;4.00;;;39.50;1.00;;;;;;5134018;27;20986;-62
2023/06/20 11:55:56;;;;;;;10.27;3.60;;;39.30;1.00;;;;;;5134622;27;20459;-62
2023/06/20 11:58:23;;;;;;;7.50;3.43;;;38.90;1.00;;;;;;5134294;27;20454;-63
2023/06/20 12:01:02;;;;;;;6.23;3.70;;;39.30;1.00;;;;;;5134275;27;20767;-62
2023/06/20 12:03:29;;;;;;;6.30;4.20;;;39.20;1.00;;;;;;5134235;27;20524;-63
2023/06/20 12:05:57;;;;;;;7.37;4.27;;;39.20;1.00;;;;;;5134259;27;20505;-64
2023/06/20 12:08:25;;;;;;;6.93;4.20;;;39.50;1.00;;;;;;5134208;27;20513;-63
2023/06/20 12:10:59;;;;;;;7.37;3.70;;;40.00;1.00;;;;;;5134310;27;20538;-64
2023/06/20 12:13:26;;;;;;;5.73;3.80;;;40.20;1.00;;;;;;5133511;27;20422;-63
2023/06/20 12:15:53;;;;;;;6.17;3.60;;;38.90;1.00;;;;;;5134157;27;20433;-62
2023/06/20 12:18:21;;;;;;;5.80;3.63;;;37.50;1.00;;;;;;5134101;27;20448;-62
2023/06/20 12:20:48;;;;;;;7.67;3.47;;;36.50;1.00;;;;;;5134048;27;20426;-62
2023/06/20 12:23:18;;;;;;;6.20;3.70;;;37.00;1.00;;;;;;5134193;27;20447;-63
2023/06/20 12:25:45;;;;;;;5.20;3.00;;;37.50;1.00;;;;;;5134155;27;20422;-63
2023/06/20 12:28:12;;;;;;;6.80;3.87;;;38.20;1.00;;;;;;5133953;27;20461;-63
2023/06/20 12:30:39;;;;;;;6.00;3.73;;;39.10;1.00;;;;;;5134010;27;20475;-63
2023/06/20 12:33:09;;;;;;;5.43;3.30;;;38.40;1.00;;;;;;5133849;27;20456;-63
2023/06/20 12:35:38;;;;;;;6.03;3.77;;;38.20;1.00;;;;;;5133439;27;20460;-63
2023/06/20 12:38:05;;;;;;;6.53;3.60;;;38.10;1.00;;;;;;5133876;27;20445;-63
2023/06/20 12:40:31;;;;;;;5.90;3.47;;;37.60;1.00;;;;;;5133735;27;20423;-63
2023/06/20 12:42:58;;;;;;;6.20;3.60;;;38.20;1.00;;;;;;5133735;27;20454;-63
2023/06/20 12:45:25;;;;;;;6.87;3.30;;;38.40;1.00;;;;;;5133548;27;20840;-63